Time;durP1;ratioP1;P1;durP2;ratioP2;P2;SDS_P1;SDS_P2;PMS_P1;PMS_P2;Temp;Humidity;BMP_temperature;BMP_pressure;BME280_temperature;BME280_humidity;BME280_pressure;Samples;Min_cycle;Max_cycle;Signal;HPM_P1;HPM_P2
2022/01/26 00:06:53;;;;;;;30.17;23.10;;;;;;;2.81;32.19;102213.50;5073150;28;20406;-78
2022/01/26 00:09:20;;;;;;;26.38;21.55;;;;;;;2.74;32.27;102217.19;5072948;28;20932;-78
2022/01/26 00:11:49;;;;;;;28.33;23.08;;;;;;;2.76;32.41;102212.75;5072977;28;20409;-77
2022/01/26 00:14:15;;;;;;;24.00;18.27;;;;;;;2.81;32.15;102208.25;5072863;28;20494;-78
2022/01/26 00:16:44;;;;;;;21.15;16.40;;;;;;;2.70;32.44;102207.69;5073104;28;20409;-78
2022/01/26 00:19:16;;;;;;;25.42;20.85;;;;;;;2.69;32.53;102205.97;5072572;28;20422;-77
2022/01/26 00:21:47;;;;;;;31.63;24.55;;;;;;;2.66;32.51;102203.44;5072502;28;20801;-77
2022/01/26 00:27:25;;;;;;;22.45;18.17;;;;;;;2.45;32.49;102205.69;5072380;28;20402;-78
2022/01/26 00:30:17;;;;;;;26.15;20.20;;;;;;;2.39;32.33;102206.72;5072767;28;20430;-75
2022/01/26 00:38:35;;;;;;;21.65;16.58;;;;;;;2.45;32.22;102202.22;5022261;28;20411;-75
2022/01/26 00:41:03;;;;;;;24.70;18.73;;;;;;;2.37;32.42;102194.53;5071859;28;20999;-78
2022/01/26 00:43:32;;;;;;;29.52;22.90;;;;;;;2.42;32.69;102191.84;5071849;28;20912;-78
2022/01/26 00:46:00;;;;;;;19.30;15.02;;;;;;;2.67;32.23;102192.91;5071260;28;20477;-76
2022/01/26 00:48:31;;;;;;;19.13;13.93;;;;;;;2.77;31.78;102193.53;5072184;28;20434;-78
2022/01/26 00:51:01;;;;;;;22.30;16.00;;;;;;;2.79;31.92;102189.97;5071979;28;20430;-78
2022/01/26 00:53:33;;;;;;;19.08;13.75;;;;;;;2.89;31.48;102190.59;5071654;28;20407;-78
2022/01/26 00:56:00;;;;;;;21.27;15.25;;;;;;;2.73;31.95;102186.66;5070594;28;20965;-75
2022/01/26 00:58:27;;;;;;;21.77;15.93;;;;;;;2.79;31.70;102181.25;5071012;28;20414;-76
2022/01/26 01:00:58;;;;;;;22.38;16.67;;;;;;;2.67;31.92;102186.81;5071312;28;20414;-76
2022/01/26 01:03:25;;;;;;;32.33;23.25;;;;;;;2.60;31.92;102176.53;5071717;28;20414;-75
2022/01/26 01:05:57;;;;;;;21.83;16.23;;;;;;;2.78;31.55;102179.56;5070572;28;20510;-75
2022/01/26 01:08:25;;;;;;;22.00;16.80;;;;;;;3.08;31.44;102177.88;5071991;28;20417;-77
2022/01/26 01:10:54;;;;;;;20.27;14.13;;;;;;;2.89;31.31;102179.25;5071851;28;20470;-76
2022/01/26 01:13:31;;;;;;;20.33;15.73;;;;;;;2.97;31.26;102178.13;5066678;28;20411;-75
2022/01/26 01:15:59;;;;;;;25.92;19.10;;;;;;;2.90;31.47;102183.59;5069489;28;20418;-76
2022/01/26 01:18:34;;;;;;;20.52;15.80;;;;;;;2.95;31.37;102173.84;5068663;28;20482;-76
2022/01/26 01:21:38;;;;;;;29.92;22.13;;;;;;;2.72;31.79;102175.34;5069932;28;20418;-77
2022/01/26 01:24:21;;;;;;;27.60;19.70;;;;;;;2.65;31.75;102172.91;5056620;28;20415;-76
2022/01/26 01:27:08;;;;;;;20.10;14.23;;;;;;;2.89;31.57;102182.72;5069481;28;20411;-74
2022/01/26 01:29:40;;;;;;;18.95;14.18;;;;;;;2.89;31.25;102181.88;5069050;28;20430;-74
2022/01/26 01:32:14;;;;;;;18.03;14.20;;;;;;;3.09;31.15;102183.94;5070502;28;20939;-75
2022/01/26 01:34:41;;;;;;;17.83;14.13;;;;;;;2.99;31.09;102171.09;5070991;28;20927;-77
2022/01/26 01:37:14;;;;;;;16.80;12.75;;;;;;;2.93;31.30;102179.13;5069969;28;20499;-76
2022/01/26 01:39:42;;;;;;;17.73;13.38;;;;;;;2.97;31.05;102177.28;5069692;28;20942;-77
2022/01/26 01:42:10;;;;;;;17.67;14.07;;;;;;;2.94;31.18;102174.75;5070935;28;20414;-76
2022/01/26 01:44:38;;;;;;;17.83;13.90;;;;;;;3.05;30.99;102166.63;5071129;28;20825;-78
2022/01/26 01:47:06;;;;;;;23.50;16.67;;;;;;;3.06;31.21;102168.31;5070154;28;20422;-77
2022/01/26 01:49:35;;;;;;;21.67;16.70;;;;;;;3.13;31.12;102168.09;5070729;28;20477;-76
2022/01/26 01:52:05;;;;;;;45.90;34.40;;;;;;;3.35;30.78;102172.72;5070594;28;20490;-77
2022/01/26 01:54:32;;;;;;;18.98;15.00;;;;;;;3.14;31.07;102163.72;5069387;28;20485;-78
2022/01/26 01:57:00;;;;;;;22.30;15.93;;;;;;;2.91;31.53;102162.59;5070485;28;20406;-78
2022/01/26 01:59:29;;;;;;;22.83;16.67;;;;;;;3.18;31.43;102165.34;5070181;28;20439;-75
2022/01/26 02:01:58;;;;;;;38.38;30.50;;;;;;;3.19;31.59;102172.31;5070255;28;20418;-78
2022/01/26 02:04:24;;;;;;;30.20;24.70;;;;;;;3.20;31.26;102164.41;5070137;28;20422;-77
2022/01/26 02:06:53;;;;;;;21.00;15.70;;;;;;;3.16;31.34;102167.16;5070350;28;20917;-78
2022/01/26 02:09:20;;;;;;;22.30;17.02;;;;;;;3.19;31.16;102169.69;5035553;28;20413;-77
2022/01/26 02:11:49;;;;;;;19.33;16.10;;;;;;;3.12;31.53;102169.03;5069773;28;20426;-77
2022/01/26 02:14:25;;;;;;;22.10;15.68;;;;;;;2.97;31.99;102165.06;5069958;28;20411;-76
2022/01/26 02:17:01;;;;;;;19.63;15.38;;;;;;;2.98;32.07;102158.03;5070183;28;20434;-77
2022/01/26 02:19:54;;;;;;;16.43;13.30;;;;;;;2.87;31.67;102157.50;5070174;28;20419;-76
2022/01/26 02:50:28;;;;;;;19.65;13.93;;;;;;;2.44;32.85;102154.28;5069497;28;20979;-77
2022/01/26 02:55:41;;;;;;;18.42;14.25;;;;;;;2.42;32.94;102150.84;5068316;28;20500;-78
2022/01/26 02:58:37;;;;;;;20.55;15.52;;;;;;;2.26;33.15;102149.50;5069326;28;20850;-77
2022/01/26 03:01:28;;;;;;;20.33;14.15;;;;;;;2.52;32.86;102148.84;5069509;28;20417;-78
2022/01/26 03:04:03;;;;;;;19.63;14.20;;;;;;;2.42;33.12;102147.38;5069307;28;20785;-77
2022/01/26 03:06:37;;;;;;;20.17;14.83;;;;;;;2.44;33.04;102149.03;5069673;28;21131;-78
2022/01/26 03:09:10;;;;;;;21.73;15.93;;;;;;;2.72;32.60;102153.56;5069448;28;20419;-77
2022/01/26 03:11:41;;;;;;;19.02;13.65;;;;;;;2.65;32.79;102142.38;5068615;28;20434;-77
2022/01/26 03:14:16;;;;;;;20.92;14.98;;;;;;;2.65;32.57;102150.22;5069490;28;20407;-78
2022/01/26 03:16:48;;;;;;;23.25;16.35;;;;;;;2.76;32.54;102142.09;5067784;28;20410;-78
2022/01/26 03:19:20;;;;;;;20.88;15.25;;;;;;;2.55;32.62;102136.53;5069402;28;20742;-79
2022/01/26 03:21:58;;;;;;;20.48;16.42;;;;;;;2.73;32.46;102140.41;5068165;28;20411;-78
2022/01/26 03:29:59;;;;;;;21.40;14.77;;;;;;;2.80;32.63;102135.88;5072918;28;20480;-78
2022/01/26 03:35:18;;;;;;;20.67;15.40;;;;;;;2.78;32.69;102130.69;5073820;28;20924;-78
2022/01/26 03:37:52;;;;;;;35.97;24.73;;;;;;;2.60;33.41;102137.28;5073234;28;20414;-78
2022/01/26 03:40:19;;;;;;;19.17;15.30;;;;;;;2.60;33.42;102136.41;5072947;28;20423;-77
2022/01/26 03:42:48;;;;;;;22.27;16.98;;;;;;;2.68;33.61;102138.84;5073098;28;20442;-78
2022/01/26 03:45:14;;;;;;;21.17;15.13;;;;;;;2.68;33.48;102141.47;5072543;28;20792;-78
2022/01/26 03:47:41;;;;;;;24.38;17.88;;;;;;;2.87;33.48;102139.19;5072770;28;20418;-77
2022/01/26 03:50:09;;;;;;;24.40;16.83;;;;;;;2.84;33.87;102140.13;5071346;28;20422;-78
2022/01/26 03:52:36;;;;;;;20.50;15.33;;;;;;;2.82;33.64;102144.56;5072574;28;20422;-79
2022/01/26 03:55:04;;;;;;;20.80;15.15;;;;;;;2.65;34.20;102152.00;5073464;28;20414;-78
2022/01/26 03:57:31;;;;;;;20.60;15.70;;;;;;;2.80;34.12;102151.59;5072768;28;20417;-78
2022/01/26 03:59:59;;;;;;;23.10;16.60;;;;;;;3.03;33.91;102150.09;5071898;28;20410;-78
2022/01/26 04:02:26;;;;;;;21.20;15.27;;;;;;;2.97;33.93;102144.09;5072853;28;20482;-78
2022/01/26 04:04:58;;;;;;;19.08;15.13;;;;;;;2.88;34.06;102149.63;5073136;28;20438;-77
2022/01/26 04:07:25;;;;;;;21.55;15.55;;;;;;;2.76;34.62;102150.81;5072557;28;20406;-77
2022/01/26 04:09:53;;;;;;;19.57;15.00;;;;;;;2.69;35.01;102143.16;5072279;28;20407;-76
2022/01/26 04:12:20;;;;;;;22.38;15.30;;;;;;;2.83;34.73;102146.25;5072442;28;20431;-78
2022/01/26 04:14:53;;;;;;;21.40;15.70;;;;;;;3.07;34.53;102149.09;5072514;28;20912;-78
2022/01/26 04:17:21;;;;;;;23.63;16.38;;;;;;;3.09;34.45;102152.53;5072182;28;20411;-78
2022/01/26 04:19:54;;;;;;;21.05;16.38;;;;;;;3.05;34.57;102156.13;5072564;28;20417;-78
2022/01/26 04:22:27;;;;;;;22.45;16.02;;;;;;;3.00;34.81;102154.50;5072744;28;20438;-76
2022/01/26 04:24:55;;;;;;;29.45;21.60;;;;;;;2.94;34.96;102159.91;5071831;28;20407;-78
2022/01/26 04:27:31;;;;;;;26.63;18.38;;;;;;;2.88;35.45;102157.47;5072872;28;20466;-78
2022/01/26 04:29:58;;;;;;;36.25;27.70;;;;;;;2.74;35.85;102155.22;5072183;28;20418;-78
2022/01/26 04:32:27;;;;;;;30.35;22.23;;;;;;;2.79;35.87;102162.94;5071384;28;20427;-76
2022/01/26 04:34:55;;;;;;;30.42;24.77;;;;;;;2.97;35.79;102154.59;5071069;28;20406;-79
2022/01/26 04:37:32;;;;;;;27.63;19.60;;;;;;;2.88;35.82;102151.34;5071947;28;20866;-78
2022/01/26 04:40:01;;;;;;;28.05;18.02;;;;;;;2.64;36.25;102155.53;5073152;28;20421;-78
2022/01/26 04:42:37;;;;;;;23.20;17.07;;;;;;;2.55;36.72;102152.22;5072275;28;20471;-78
2022/01/26 04:45:08;;;;;;;21.20;15.35;;;;;;;2.49;36.93;102148.91;5070846;28;21050;-75
2022/01/26 04:47:37;;;;;;;23.58;16.20;;;;;;;2.44;36.93;102154.28;5071651;28;20419;-77
2022/01/26 04:50:06;;;;;;;32.72;25.23;;;;;;;2.54;36.84;102147.91;5071613;28;20410;-78
2022/01/26 04:52:33;;;;;;;34.03;23.67;;;;;;;2.37;37.21;102150.09;5072142;28;20431;-78
2022/01/26 04:55:00;;;;;;;32.70;22.33;;;;;;;2.42;36.91;102153.44;5071956;28;20422;-77
2022/01/26 04:57:27;;;;;;;31.00;21.27;;;;;;;2.32;36.89;102150.22;5072172;28;20407;-77
2022/01/26 04:59:54;;;;;;;30.48;21.50;;;;;;;2.14;37.39;102143.69;5037590;28;21261;-76
2022/01/26 05:02:21;;;;;;;34.67;26.48;;;;;;;2.06;37.50;102127.31;5070067;28;20411;-76
2022/01/26 05:04:49;;;;;;;31.45;22.67;;;;;;;1.91;37.71;102128.56;5070649;28;20973;-78
2022/01/26 05:07:16;;;;;;;38.42;28.33;;;;;;;1.96;37.82;102120.59;5071213;28;20411;-76
2022/01/26 05:09:43;;;;;;;57.30;35.35;;;;;;;1.95;38.06;102124.13;5071548;28;20458;-79
2022/01/26 05:12:12;;;;;;;55.92;35.00;;;;;;;1.90;38.20;102131.22;5070920;28;20462;-75
2022/01/26 05:14:41;;;;;;;29.10;20.13;;;;;;;1.82;38.06;102138.38;5071471;28;20417;-79
2022/01/26 05:17:08;;;;;;;23.35;16.98;;;;;;;1.85;38.26;102143.53;5071315;28;20501;-78
2022/01/26 05:19:35;;;;;;;22.23;16.40;;;;;;;1.94;38.26;102143.31;5071415;28;20940;-78
2022/01/26 05:22:04;;;;;;;27.60;20.83;;;;;;;1.96;38.34;102154.59;5071778;28;20446;-79
2022/01/26 05:24:31;;;;;;;21.48;17.25;;;;;;;1.88;38.60;102148.69;5070407;28;20788;-77
2022/01/26 05:27:00;;;;;;;25.77;18.58;;;;;;;1.87;38.83;102147.81;5071655;28;20992;-79
2022/01/26 05:29:27;;;;;;;22.17;16.17;;;;;;;1.87;39.08;102158.28;5071136;28;20417;-76
2022/01/26 05:31:54;;;;;;;23.55;16.50;;;;;;;1.84;39.01;102152.25;5053297;28;20465;-75
2022/01/26 05:34:21;;;;;;;23.75;18.17;;;;;;;1.79;38.94;102148.00;5071774;28;20493;-76
2022/01/26 05:36:48;;;;;;;28.23;20.97;;;;;;;1.71;39.21;102149.09;5071653;28;20498;-77
2022/01/26 05:39:17;;;;;;;29.20;23.00;;;;;;;1.63;39.58;102146.63;5071593;28;20421;-76
2022/01/26 05:41:44;;;;;;;28.20;20.30;;;;;;;1.63;39.95;102149.25;5071229;28;20489;-76
2022/01/26 05:44:11;;;;;;;30.27;20.80;;;;;;;1.70;39.86;102150.81;5071517;28;20417;-77
2022/01/26 05:46:41;;;;;;;41.80;26.10;;;;;;;1.79;39.94;102150.63;5070624;28;20502;-76
2022/01/26 05:49:09;;;;;;;42.33;29.33;;;;;;;1.75;39.83;102154.19;5070076;28;20893;-76
2022/01/26 05:51:36;;;;;;;35.33;25.73;;;;;;;1.92;39.45;102145.09;5070038;28;20875;-77
2022/01/26 05:54:05;;;;;;;31.83;24.15;;;;;;;1.85;40.35;102146.16;5069797;28;20995;-75
2022/01/26 05:56:33;;;;;;;29.90;22.50;;;;;;;1.90;39.72;102152.97;5068889;28;20763;-76
2022/01/26 05:59:00;;;;;;;32.70;24.95;;;;;;;1.97;39.77;102158.94;5068613;28;20849;-76
2022/01/26 06:01:27;;;;;;;29.03;20.43;;;;;;;1.93;39.89;102158.13;5069668;28;20415;-77
2022/01/26 06:03:54;;;;;;;28.63;20.48;;;;;;;2.07;39.72;102159.53;5069205;28;20444;-78
2022/01/26 06:06:21;;;;;;;22.60;18.43;;;;;;;2.11;39.62;102161.19;5051143;28;20423;-77
2022/01/26 06:08:48;;;;;;;27.20;20.30;;;;;;;2.19;39.56;102159.28;5070141;28;20497;-78
2022/01/26 06:11:17;;;;;;;25.93;18.90;;;;;;;2.16;39.66;102159.34;5067678;28;20885;-75
2022/01/26 06:13:45;;;;;;;29.02;22.10;;;;;;;2.11;39.79;102156.84;5070062;28;20524;-76
2022/01/26 06:16:13;;;;;;;27.63;20.77;;;;;;;2.00;40.31;102156.22;5070344;28;20460;-75
2022/01/26 06:18:41;;;;;;;33.65;24.42;;;;;;;2.22;40.03;102159.19;5069234;28;20481;-76
2022/01/26 06:21:08;;;;;;;39.30;30.42;;;;;;;2.31;40.08;102164.19;5069457;28;20447;-76
2022/01/26 06:23:35;;;;;;;36.38;28.75;;;;;;;2.52;39.95;102154.09;5069884;28;20411;-76
2022/01/26 06:26:02;;;;;;;36.90;29.08;;;;;;;2.64;39.56;102166.00;5069817;28;20447;-75
2022/01/26 06:28:29;;;;;;;40.22;30.58;;;;;;;2.45;39.94;102162.97;5069575;28;20439;-75
2022/01/26 06:31:00;;;;;;;41.58;31.75;;;;;;;2.60;40.07;102160.81;5067820;28;20415;-75
2022/01/26 06:33:28;;;;;;;35.85;26.83;;;;;;;2.68;39.97;102163.25;5069947;28;20422;-76
2022/01/26 06:35:57;;;;;;;34.33;27.20;;;;;;;2.81;39.70;102163.75;5068038;28;20403;-76
2022/01/26 06:38:25;;;;;;;29.87;23.47;;;;;;;3.04;39.35;102165.72;5049942;28;20459;-76
2022/01/26 06:40:52;;;;;;;30.08;23.13;;;;;;;3.15;39.35;102157.59;5066251;28;20529;-75
2022/01/26 06:43:20;;;;;;;32.47;25.73;;;;;;;3.54;38.62;102159.94;5068589;28;20438;-76
2022/01/26 06:45:53;;;;;;;30.38;22.95;;;;;;;3.58;38.72;102162.41;5069138;28;20988;-78
2022/01/26 06:51:06;;;;;;;33.33;26.38;;;;;;;3.66;38.79;102156.94;5069974;28;20476;-77
2022/01/26 06:53:33;;;;;;;32.75;26.60;;;;;;;3.86;38.69;102166.81;5069793;28;20421;-78
2022/01/26 06:56:00;;;;;;;39.33;31.05;;;;;;;4.14;38.15;102148.44;5070239;28;20557;-77
2022/01/26 06:58:27;;;;;;;30.42;24.52;;;;;;;4.37;38.05;102159.91;5069823;28;20498;-78
2022/01/26 07:00:54;;;;;;;32.97;27.80;;;;;;;4.66;38.06;102160.69;5069531;28;20891;-78
2022/01/26 07:03:22;;;;;;;33.40;26.40;;;;;;;4.60;37.97;102154.75;5068482;28;20435;-75
2022/01/26 07:05:49;;;;;;;35.83;28.17;;;;;;;4.59;38.42;102152.16;5067398;28;20772;-76
2022/01/26 07:08:16;;;;;;;23.40;20.55;;;;;;;4.56;38.61;102147.88;5069121;28;20426;-75
2022/01/26 07:10:44;;;;;;;23.73;20.75;;;;;;;4.48;38.95;102154.28;5069520;28;20411;-77
2022/01/26 07:13:11;;;;;;;35.53;27.85;;;;;;;4.95;38.78;102144.75;5069085;28;20438;-78
2022/01/26 07:24:01;;;;;;;20.42;18.25;;;;;;;16.38;22.71;102137.06;5091191;27;2080466;-77
2022/01/26 07:26:30;;;;;;;16.20;14.00;;;;;;;17.08;21.77;102134.63;5156058;27;20516;-76
2022/01/26 07:28:57;;;;;;;19.70;15.50;;;;;;;16.18;22.51;102130.72;5156538;27;20411;-76
2022/01/26 07:31:24;;;;;;;20.98;16.95;;;;;;;16.29;22.35;102129.78;5155038;27;20870;-77
2022/01/26 07:33:54;;;;;;;20.88;17.58;;;;;;;18.09;20.88;102138.06;5156603;27;20482;-75
2022/01/26 07:36:22;;;;;;;20.15;18.00;;;;;;;19.86;19.15;102136.44;5157626;27;20807;-76
2022/01/26 07:38:51;;;;;;;18.40;16.50;;;;;;;20.91;17.72;102146.31;5155409;27;21017;-75
2022/01/26 07:41:19;;;;;;;16.83;15.02;;;;;;;22.01;17.18;102135.53;5154455;27;20494;-76
2022/01/26 07:43:46;;;;;;;19.20;17.40;;;;;;;;;;5155707;27;20425;-76
2022/01/26 07:46:14;;;;;;;21.48;18.10;;;;;;;25.37;14.14;102138.00;5157635;27;20416;-77
2022/01/26 07:48:41;;;;;;;20.20;18.13;;;;;;;27.15;13.22;102138.84;5131868;27;20492;-76
2022/01/26 07:51:08;;;;;;;18.90;16.20;;;;;;;26.42;13.58;102138.38;5150108;27;20406;-75
2022/01/26 07:53:35;;;;;;;27.80;25.10;;;;;;;26.19;13.67;102140.28;5137114;27;20479;-77
2022/01/26 07:56:03;;;;;;;34.03;30.75;;;;;;;26.43;13.21;102135.47;5156477;27;20975;-76
2022/01/26 07:58:31;;;;;;;18.08;16.08;;;;;;;24.24;14.90;102139.06;5153076;27;20404;-75
2022/01/26 08:00:58;;;;;;;38.97;35.03;;;;;;;24.60;14.79;102141.97;5136813;27;20804;-75
2022/01/26 08:03:27;;;;;;;18.75;16.88;;;;;;;23.52;15.63;102127.56;5154324;27;20451;-76
2022/01/26 08:05:54;;;;;;;18.17;16.27;;;;;;;23.38;15.30;102123.75;5151674;27;20416;-78
2022/01/26 08:08:21;;;;;;;17.38;15.57;;;;;;;22.49;16.64;102128.44;5149872;27;20439;-76
2022/01/26 08:10:50;;;;;;;15.55;14.05;;;;;;;21.33;17.22;102134.72;5155289;27;20397;-76
2022/01/26 08:13:17;;;;;;;19.98;17.95;;;;;;;20.78;18.25;102135.13;5156642;27;20502;-76
2022/01/26 08:15:45;;;;;;;27.52;24.48;;;;;;;21.20;17.95;102137.00;5151342;27;20874;-75
2022/01/26 08:18:12;;;;;;;18.13;16.10;;;;;;;21.98;17.23;102136.72;5155247;27;21042;-76
2022/01/26 08:20:41;;;;;;;19.75;17.70;;;;;;;23.89;15.80;102134.09;5150992;27;20411;-75
2022/01/26 08:23:08;;;;;;;25.67;23.17;;;;;;;22.80;16.08;102130.38;5151867;27;20419;-74
2022/01/26 08:25:35;;;;;;;20.83;18.77;;;;;;;21.84;16.93;102137.38;5153619;27;20396;-73
2022/01/26 08:28:07;;;;;;;18.70;16.80;;;;;;;19.75;18.73;102130.28;5155496;27;20401;-75
2022/01/26 08:30:36;;;;;;;20.50;18.45;;;;;;;17.63;20.52;102136.88;5145392;27;20783;-75
2022/01/26 08:33:06;;;;;;;22.83;20.48;;;;;;;17.91;20.63;102134.41;5145599;27;20500;-76
2022/01/26 08:35:34;;;;;;;18.23;16.40;;;;;;;23.48;16.13;102134.34;5125544;27;20474;-75
2022/01/26 08:38:01;;;;;;;19.13;17.23;;;;;;;26.55;13.82;102133.88;5127055;27;20445;-76
2022/01/26 08:40:28;;;;;;;25.05;22.63;;;;;;;26.69;13.26;102134.00;5125900;27;20417;-74
2022/01/26 08:42:55;;;;;;;24.83;22.45;;;;;;;24.10;15.15;102135.28;5135915;27;20424;-76
2022/01/26 08:45:23;;;;;;;14.95;13.55;;;;;;;21.54;16.82;102134.28;5139277;27;20410;-76
2022/01/26 08:47:50;;;;;;;17.38;15.45;;;;;;;20.76;18.01;102137.13;5132775;27;20410;-78
2022/01/26 08:50:20;;;;;;;17.08;15.38;;;;;;;19.55;18.88;102140.28;5121439;27;20495;-79
2022/01/26 08:52:48;;;;;;;18.77;16.80;;;;;;;19.87;18.87;102144.34;5120825;27;20456;-77
2022/01/26 08:55:15;;;;;;;24.85;20.17;;;;;;;19.29;19.55;102139.31;5131043;27;20410;-76
2022/01/26 08:57:42;;;;;;;26.60;23.10;;;;;;;19.72;18.86;102141.31;5132806;27;20433;-77
2022/01/26 09:00:12;;;;;;;25.65;20.95;;;;;;;19.84;19.15;102138.44;5133543;27;20430;-78
2022/01/26 09:02:39;;;;;;;31.15;26.65;;;;;;;19.67;19.42;102132.84;5132752;27;20422;-75
2022/01/26 09:05:08;;;;;;;29.92;21.80;;;;;;;20.13;18.79;102130.97;5133903;27;21102;-80
2022/01/26 09:07:37;;;;;;;27.27;21.40;;;;;;;21.04;18.23;102132.38;5129022;27;20840;-74
2022/01/26 09:10:06;;;;;;;21.67;19.30;;;;;;;19.64;20.04;102127.78;5124176;27;20418;-74
2022/01/26 09:12:36;;;;;;;21.35;16.85;;;;;;;19.67;19.59;102135.53;5132191;27;20412;-75
2022/01/26 09:15:05;;;;;;;25.42;16.40;;;;;;;20.75;18.40;102130.06;5129757;27;20448;-73
2022/01/26 09:17:33;;;;;;;17.92;14.88;;;;;;;20.82;18.66;102123.03;5114249;27;20435;-75
2022/01/26 09:20:02;;;;;;;17.63;14.43;;;;;;;19.90;19.38;102127.06;5132699;27;20433;-74
2022/01/26 09:22:29;;;;;;;17.83;14.07;;;;;;;24.05;16.06;102125.00;5132194;27;20728;-73
2022/01/26 09:24:58;;;;;;;16.42;14.60;;;;;;;27.36;13.77;102116.13;5132431;27;20410;-74
2022/01/26 09:27:26;;;;;;;20.17;17.70;;;;;;;29.92;11.32;102106.97;5132243;27;20410;-73
2022/01/26 09:29:53;;;;;;;16.00;14.27;;;;;;;29.92;11.27;102117.88;5132378;27;20406;-74
2022/01/26 09:32:20;;;;;;;18.15;13.63;;;;;;;27.83;12.42;102110.78;5132037;27;20523;-75
2022/01/26 09:34:47;;;;;;;14.95;10.82;;;;;;;27.14;12.66;102105.34;5132090;27;20406;-74
2022/01/26 09:37:16;;;;;;;13.30;11.70;;;;;;;29.41;11.21;102098.91;5132272;27;20410;-74
2022/01/26 09:39:45;;;;;;;28.88;13.20;;;;;;;28.75;11.60;102107.16;5132006;27;20416;-73
2022/01/26 09:42:14;;;;;;;16.48;13.30;;;;;;;30.74;10.46;102095.88;5131860;27;20441;-76
2022/01/26 09:44:41;;;;;;;13.68;11.57;;;;;;;31.35;10.05;102083.09;5127699;27;20772;-77
2022/01/26 09:47:09;;;;;;;11.45;10.02;;;;;;;29.72;10.41;102090.72;5128799;27;20474;-76
2022/01/26 09:49:36;;;;;;;11.53;10.33;;;;;;;31.72;9.64;102099.41;5132146;27;20402;-76
2022/01/26 09:52:13;;;;;;;12.43;9.75;;;;;;;31.92;9.46;102090.03;5130853;27;20474;-76
2022/01/26 09:54:40;;;;;;;11.63;9.63;;;;;;;33.25;8.65;102092.94;5128588;27;20730;-75
2022/01/26 09:57:08;;;;;;;15.90;9.95;;;;;;;31.67;9.07;102093.81;5130594;27;20484;-75
2022/01/26 09:59:36;;;;;;;13.30;10.60;;;;;;;30.66;9.79;102090.72;5127869;27;20404;-75
2022/01/26 10:02:04;;;;;;;9.93;9.02;;;;;;;31.44;9.29;102088.25;5130923;27;20406;-75
2022/01/26 10:04:34;;;;;;;12.40;10.90;;;;;;;30.33;10.02;102093.78;5130699;27;20420;-76
2022/01/26 10:07:15;;;;;;;19.20;16.58;;;;;;;28.66;11.07;102077.63;5130805;27;20410;-75
2022/01/26 10:09:58;;;;;;;18.20;12.57;;;;;;;31.00;9.84;102087.59;5129624;27;20408;-75
2022/01/26 10:15:35;;;;;;;12.48;10.98;;;;;;;29.34;10.51;102079.84;5129959;27;20392;-75
2022/01/26 10:18:06;;;;;;;13.30;10.75;;;;;;;28.83;10.90;102086.97;5128919;27;20433;-74
2022/01/26 10:20:41;;;;;;;15.15;11.73;;;;;;;30.76;10.12;102092.91;5129759;27;20406;-76
2022/01/26 10:23:12;;;;;;;13.27;11.70;;;;;;;31.45;9.34;102093.53;5111737;27;20422;-75
2022/01/26 10:25:41;;;;;;;12.13;10.87;;;;;;;30.41;9.83;102090.75;5127707;27;20410;-75
2022/01/26 10:28:09;;;;;;;14.75;11.65;;;;;;;30.47;9.90;102087.13;5128142;27;20489;-75
2022/01/26 10:30:38;;;;;;;13.93;11.67;;;;;;;28.84;10.48;102080.47;5129937;27;20960;-74
2022/01/26 10:33:08;;;;;;;20.67;13.00;;;;;;;27.91;11.28;102078.75;5130514;27;20473;-75
2022/01/26 10:35:36;;;;;;;12.82;11.57;;;;;;;29.14;10.59;102075.34;5130171;27;20402;-74
2022/01/26 10:38:03;;;;;;;18.85;13.70;;;;;;;28.06;11.35;102072.25;5135411;27;20419;-74
2022/01/26 10:40:31;;;;;;;13.27;11.98;;;;;;;25.89;12.84;102073.59;5134836;27;20406;-75
2022/01/26 10:43:03;;;;;;;17.13;13.60;;;;;;;27.11;11.90;102077.72;5130432;27;20426;-74
2022/01/26 10:45:48;;;;;;;15.85;14.00;;;;;;;28.71;11.27;102073.19;5130323;27;20413;-76
2022/01/26 10:48:24;;;;;;;16.90;12.80;;;;;;;27.97;11.39;102077.91;5129373;27;20969;-76
2022/01/26 10:53:58;;;;;;;14.10;12.70;;;;;;;26.86;11.83;102051.06;5027037;28;20422;-76
2022/01/26 10:56:25;;;;;;;20.65;12.52;;;;;;;26.88;12.10;102059.84;5026799;28;20414;-77
2022/01/26 10:58:52;;;;;;;15.90;13.43;;;;;;;28.11;11.68;102051.50;5077628;27;20406;-76
2022/01/26 11:01:21;;;;;;;15.82;11.80;;;;;;;25.76;13.04;102055.31;5130132;27;20501;-75
2022/01/26 11:03:48;;;;;;;13.60;11.77;;;;;;;26.31;12.54;102045.53;5129646;27;20807;-75
2022/01/26 11:06:19;;;;;;;15.15;12.95;;;;;;;26.94;12.09;102036.44;5129940;27;20974;-73
2022/01/26 11:08:48;;;;;;;14.63;13.07;;;;;;;26.63;12.23;102042.41;5133451;27;20438;-74
2022/01/26 11:11:22;;;;;;;13.43;12.00;;;;;;;23.78;14.10;102043.38;5131429;27;20489;-75
2022/01/26 11:13:49;;;;;;;13.48;12.10;;;;;;;21.78;15.58;102032.84;5130287;27;20480;-74
2022/01/26 11:16:18;;;;;;;13.45;12.10;;;;;;;22.30;15.43;102040.53;5112272;27;20497;-73
2022/01/26 11:18:52;;;;;;;14.60;13.02;;;;;;;20.96;16.83;102038.06;5129778;27;20405;-75
2022/01/26 11:21:27;;;;;;;15.40;12.80;;;;;;;21.86;16.56;102029.28;5129792;28;20450;-73
2022/01/26 11:24:06;;;;;;;14.50;12.82;;;;;;;22.18;15.95;102023.88;5123793;28;20508;-74
2022/01/26 11:26:33;;;;;;;17.30;13.50;;;;;;;21.91;15.97;102024.22;5126071;28;20410;-73
2022/01/26 11:29:00;;;;;;;15.82;13.10;;;;;;;20.40;17.09;102024.19;5133101;27;20492;-73
2022/01/26 11:31:28;;;;;;;17.45;12.95;;;;;;;19.34;18.49;102018.78;5118497;27;20434;-73
2022/01/26 11:33:58;;;;;;;17.80;15.70;;;;;;;19.05;18.47;102024.38;5135747;27;20406;-73
2022/01/26 11:36:28;;;;;;;17.38;13.40;;;;;;;18.13;19.44;102017.97;5138422;27;20903;-72
2022/01/26 11:42:13;;;;;;;15.98;14.40;;;;;;;18.61;19.37;102020.47;5135194;27;20445;-73
2022/01/26 11:42:28;;;;;;;18.55;15.65;;;;;;;19.59;18.65;102023.41;5125266;27;20930;-74
2022/01/26 11:45:08;;;;;;;20.65;15.48;;;;;;;19.17;18.81;102007.88;5136452;27;20420;-74
2022/01/26 11:47:38;;;;;;;18.17;14.50;;;;;;;19.09;19.09;102013.16;5128883;27;20911;-73
2022/01/26 11:50:10;;;;;;;16.02;14.07;;;;;;;18.50;19.65;102006.41;5126746;28;20502;-73
2022/01/26 11:52:39;;;;;;;16.98;13.70;;;;;;;18.62;19.37;102002.53;5128715;28;20404;-73
2022/01/26 11:55:20;;;;;;;21.92;16.02;;;;;;;18.09;20.18;101998.63;5128473;28;20532;-74
2022/01/26 11:57:50;;;;;;;19.45;17.35;;;;;;;17.73;20.74;101994.84;5128920;28;20485;-73
2022/01/26 12:00:35;;;;;;;15.90;13.50;;;;;;;16.87;21.48;102000.00;5128714;28;20919;-73
2022/01/26 12:03:03;;;;;;;15.77;14.07;;;;;;;16.18;22.22;102004.19;5128403;28;20405;-75
2022/01/26 12:05:45;;;;;;;18.27;15.02;;;;;;;15.59;22.75;102006.47;5129347;28;20433;-73
2022/01/26 12:08:12;;;;;;;16.13;14.40;;;;;;;15.27;23.63;101994.91;5126975;27;20907;-74
2022/01/26 12:10:39;;;;;;;19.15;15.43;;;;;;;14.30;24.57;101994.66;5131691;27;20416;-73
2022/01/26 12:13:09;;;;;;;17.75;14.23;;;;;;;14.37;24.44;101998.53;5133196;27;20461;-72
2022/01/26 12:15:43;;;;;;;14.85;13.10;;;;;;;13.80;25.06;101982.44;5127337;27;20405;-73
2022/01/26 12:18:29;;;;;;;18.55;16.50;;;;;;;14.11;25.14;101996.09;5133577;27;20406;-74
2022/01/26 12:32:29;;;;;;;18.08;13.95;;;;;;;13.20;26.51;101986.09;5128863;27;20779;-73
2022/01/26 12:35:04;;;;;;;17.95;13.20;;;;;;;12.72;27.12;101989.53;5132859;27;20938;-73
2022/01/26 12:37:50;;;;;;;18.08;14.35;;;;;;;13.02;26.91;101982.94;5132911;27;20413;-73
2022/01/26 12:43:06;;;;;;;19.65;15.70;;;;;;;13.06;27.02;101981.75;5114389;27;20409;-74
2022/01/26 12:45:34;;;;;;;20.37;15.67;;;;;;;12.78;27.29;101982.91;5132121;27;20949;-74
2022/01/26 12:48:01;;;;;;;24.33;14.95;;;;;;;12.84;27.00;101985.13;5132089;27;20918;-74
2022/01/26 12:50:29;;;;;;;17.93;13.50;;;;;;;12.68;27.25;101982.72;5131940;27;20398;-73
2022/01/26 12:52:58;;;;;;;17.73;13.33;;;;;;;12.79;27.12;101985.47;5132594;27;20413;-73